Christian Reinauer — WDA6472 — position and weather

sailwx.info

Track history (hours):
 
Tides and Currents Weather Stations Pressure Air Temp Water Temp Dewpoint Dewpoint Depression Visibility Wind Speed Wind Dir Waves Ship Positions

Christian Reinauer

Owner: REINAUER TRANSPORTATION CO LLC, STATEN ISLAND, NY. More information available from US FCC via Universal Licensing System and Coast Guard Vessel Documentation Center.

Last reported at 2014-Nov-20 08:17 UTC. Time now 2014-Nov-21 04:24 UTC.
Position N 29°57' W 090°02'.

Length 170 m; draft 7.5 m.

Type: Ship (hazmat cat B). MMSI: 366832740.

Date/timePositionNaut miles runAvg speedWind from/ knotsBaromVisibWave heightAir tempDewpointWater temp
2014-Nov-20 08:17N 29°57' W 090°02'0 0.0
2014-Nov-20 02:26N 29°57' W 090°02'3 3.9
2014-Nov-20 01:33N 29°56' W 089°58'  
2014-Nov-16 22:33N 25°48' W 080°03'1110.8
2014-Nov-16 21:33N 25°59' W 080°03'1211.5
2014-Nov-16 20:33N 26°10' W 080°01'1211.7
2014-Nov-16 19:33N 26°22' W 080°00'1212.2
2014-Nov-16 18:33N 26°34' W 079°60'1410.1
2014-Nov-16 17:09N 26°48' W 079°60'610.6
2014-Nov-16 16:33N 26°54' W 080°01'1111.1
2014-Nov-16 15:33N 27°05' W 080°04'  
2014-Nov-14 04:08N 27°03' W 079°59'712.9
2014-Nov-14 03:33N 26°56' W 079°58'1412.5
2014-Nov-14 02:28N 26°42' W 079°57'1112.6
2014-Nov-14 01:33N 26°31' W 079°54'1313.3
2014-Nov-14 00:33N 26°18' W 079°51'1313.0
2014-Nov-13 23:33N 26°05' W 079°51'1413.8
2014-Nov-13 22:33N 25°51' W 079°51'185 5.4
2014-Nov-12 12:33N 27°01' W 083°02'1111.4
2014-Nov-12 11:33N 27°13' W 083°01'2311.5
2014-Nov-12 09:33N 27°35' W 082°59'1111.2
2014-Nov-12 08:33N 27°37' W 082°47'9 9.2
2014-Nov-12 07:33N 27°39' W 082°37'9 9.0
2014-Nov-12 06:33N 27°47' W 082°32'5 4.4
2014-Nov-12 05:30N 27°52' W 082°33'0 0.0
2014-Nov-12 04:33N 27°52' W 082°33'0 0.0
2014-Nov-12 03:32N 27°52' W 082°33'0 0.0
2014-Nov-12 02:32N 27°52' W 082°33'0 0.0
2014-Nov-12 01:32N 27°52' W 082°33'0 0.0
2014-Nov-12 00:32N 27°52' W 082°33'0 0.0
2014-Nov-11 23:32N 27°52' W 082°33'0 0.0
2014-Nov-11 22:32N 27°52' W 082°33'0 0.0
2014-Nov-11 21:32N 27°52' W 082°33'0 0.0
2014-Nov-11 20:32N 27°52' W 082°33'0 0.0
2014-Nov-11 19:29N 27°52' W 082°33'0 0.0
2014-Nov-11 18:32N 27°52' W 082°33'4 4.4
2014-Nov-11 17:33N 27°47' W 082°34'10 7.7
2014-Nov-11 16:16N 27°38' W 082°38'910.1
2014-Nov-11 15:25N 27°37' W 082°47'7 7.8
2014-Nov-11 14:33N 27°36' W 082°55'2 1.7
2014-Nov-11 13:33N 27°37' W 082°56'0 0.0
2014-Nov-11 12:32N 27°37' W 082°56'0 0.0
2014-Nov-11 11:33N 27°37' W 082°56'0 0.0
2014-Nov-11 10:33N 27°37' W 082°56'0 0.0
2014-Nov-11 09:34N 27°37' W 082°56'5 5.2
2014-Nov-11 08:33N 27°38' W 083°02'  
Track history (hours):
 
Tides and Currents Weather Stations Pressure Air Temp Water Temp Dewpoint Dewpoint Depression Visibility Wind Speed Wind Dir Waves Ship Positions

Christian Reinauer

Owner: REINAUER TRANSPORTATION CO LLC, STATEN ISLAND, NY. More information available from US FCC via Universal Licensing System and Coast Guard Vessel Documentation Center.

Last reported at 2014-Nov-20 08:17 UTC. Time now 2014-Nov-21 04:24 UTC.
Position N 29°57' W 090°02'.

Length 170 m; draft 7.5 m.

Type: Ship (hazmat cat B). MMSI: 366832740.

Date/timePositionNaut miles runAvg speedWind from/ knotsBaromVisibWave heightAir tempDewpointWater temp
2014-Nov-20 08:17N 29°57' W 090°02'0 0.0
2014-Nov-20 02:26N 29°57' W 090°02'3 3.9
2014-Nov-20 01:33N 29°56' W 089°58'  
2014-Nov-16 22:33N 25°48' W 080°03'1110.8
2014-Nov-16 21:33N 25°59' W 080°03'1211.5
2014-Nov-16 20:33N 26°10' W 080°01'1211.7
2014-Nov-16 19:33N 26°22' W 080°00'1212.2
2014-Nov-16 18:33N 26°34' W 079°60'1410.1
2014-Nov-16 17:09N 26°48' W 079°60'610.6
2014-Nov-16 16:33N 26°54' W 080°01'1111.1
2014-Nov-16 15:33N 27°05' W 080°04'  
2014-Nov-14 04:08N 27°03' W 079°59'712.9
2014-Nov-14 03:33N 26°56' W 079°58'1412.5
2014-Nov-14 02:28N 26°42' W 079°57'1112.6
2014-Nov-14 01:33N 26°31' W 079°54'1313.3
2014-Nov-14 00:33N 26°18' W 079°51'1313.0
2014-Nov-13 23:33N 26°05' W 079°51'1413.8
2014-Nov-13 22:33N 25°51' W 079°51'185 5.4
2014-Nov-12 12:33N 27°01' W 083°02'1111.4
2014-Nov-12 11:33N 27°13' W 083°01'2311.5
2014-Nov-12 09:33N 27°35' W 082°59'1111.2
2014-Nov-12 08:33N 27°37' W 082°47'9 9.2
2014-Nov-12 07:33N 27°39' W 082°37'9 9.0
2014-Nov-12 06:33N 27°47' W 082°32'5 4.4
2014-Nov-12 05:30N 27°52' W 082°33'0 0.0
2014-Nov-12 04:33N 27°52' W 082°33'0 0.0
2014-Nov-12 03:32N 27°52' W 082°33'0 0.0
2014-Nov-12 02:32N 27°52' W 082°33'0 0.0
2014-Nov-12 01:32N 27°52' W 082°33'0 0.0
2014-Nov-12 00:32N 27°52' W 082°33'0 0.0
2014-Nov-11 23:32N 27°52' W 082°33'0 0.0
2014-Nov-11 22:32N 27°52' W 082°33'0 0.0
2014-Nov-11 21:32N 27°52' W 082°33'0 0.0
2014-Nov-11 20:32N 27°52' W 082°33'0 0.0
2014-Nov-11 19:29N 27°52' W 082°33'0 0.0
2014-Nov-11 18:32N 27°52' W 082°33'4 4.4
2014-Nov-11 17:33N 27°47' W 082°34'10 7.7
2014-Nov-11 16:16N 27°38' W 082°38'910.1
2014-Nov-11 15:25N 27°37' W 082°47'7 7.8
2014-Nov-11 14:33N 27°36' W 082°55'2 1.7
2014-Nov-11 13:33N 27°37' W 082°56'0 0.0
2014-Nov-11 12:32N 27°37' W 082°56'0 0.0
2014-Nov-11 11:33N 27°37' W 082°56'0 0.0
2014-Nov-11 10:33N 27°37' W 082°56'0 0.0
2014-Nov-11 09:34N 27°37' W 082°56'5 5.2
2014-Nov-11 08:33N 27°38' W 083°02'  

Dump ship's entire track history